sensor_id;sensor_type;location;lat;lon;timestamp;pressure;altitude;pressure_sealevel;temperature;humidity
70758;BME280;59316;52.964;7.102;2023-05-11T00:03:07;101432.31;;;13.63;nan
70758;BME280;59316;52.964;7.102;2023-05-11T00:08:29;101434.81;;;13.64;nan
70758;BME280;59316;52.964;7.102;2023-05-11T00:13:50;101427.88;;;13.63;nan
70758;BME280;59316;52.964;7.102;2023-05-11T00:19:12;101419.53;;;13.57;nan
70758;BME280;59316;52.964;7.102;2023-05-11T00:24:34;101412.88;;;13.66;nan
70758;BME280;59316;52.964;7.102;2023-05-11T00:29:55;101425.13;;;13.52;nan
70758;BME280;59316;52.964;7.102;2023-05-11T00:35:17;101414.88;;;13.47;nan
70758;BME280;59316;52.964;7.102;2023-05-11T00:40:38;101419.09;;;13.50;nan
70758;BME280;59316;52.964;7.102;2023-05-11T00:46:01;101418.59;;;13.58;nan
70758;BME280;59316;52.964;7.102;2023-05-11T00:51:23;101420.31;;;13.44;nan
70758;BME280;59316;52.964;7.102;2023-05-11T00:56:45;101424.44;;;13.34;nan
70758;BME280;59316;52.964;7.102;2023-05-11T01:02:07;101424.28;;;13.37;nan
70758;BME280;59316;52.964;7.102;2023-05-11T01:07:35;101411.81;;;13.41;nan
70758;BME280;59316;52.964;7.102;2023-05-11T01:13:17;101419.13;;;13.36;nan
70758;BME280;59316;52.964;7.102;2023-05-11T01:24:36;101422.47;;;13.38;nan
70758;BME280;59316;52.964;7.102;2023-05-11T01:30:38;101426.81;;;13.39;nan
70758;BME280;59316;52.964;7.102;2023-05-11T01:36:09;101425.41;;;13.33;nan
70758;BME280;59316;52.964;7.102;2023-05-11T01:41:32;101429.25;;;13.27;nan
70758;BME280;59316;52.964;7.102;2023-05-11T01:46:55;101423.91;;;13.43;nan
70758;BME280;59316;52.964;7.102;2023-05-11T01:52:20;101426.34;;;13.32;nan
70758;BME280;59316;52.964;7.102;2023-05-11T01:57:44;101431.13;;;13.40;nan
70758;BME280;59316;52.964;7.102;2023-05-11T02:03:07;101436.09;;;13.30;nan
70758;BME280;59316;52.964;7.102;2023-05-11T02:08:30;101441.34;;;13.30;nan
70758;BME280;59316;52.964;7.102;2023-05-11T02:13:55;101445.78;;;13.29;nan
70758;BME280;59316;52.964;7.102;2023-05-11T02:19:18;101447.81;;;13.39;nan
70758;BME280;59316;52.964;7.102;2023-05-11T02:24:41;101455.91;;;13.36;nan
70758;BME280;59316;52.964;7.102;2023-05-11T02:30:04;101453.66;;;13.29;nan
70758;BME280;59316;52.964;7.102;2023-05-11T02:35:28;101456.53;;;13.25;nan
70758;BME280;59316;52.964;7.102;2023-05-11T02:40:54;101463.69;;;13.23;nan
70758;BME280;59316;52.964;7.102;2023-05-11T02:46:25;101454.22;;;13.35;nan
70758;BME280;59316;52.964;7.102;2023-05-11T02:51:51;101456.53;;;13.25;nan
70758;BME280;59316;52.964;7.102;2023-05-11T02:57:14;101453.66;;;13.29;nan
70758;BME280;59316;52.964;7.102;2023-05-11T03:02:38;101451.66;;;13.19;nan
70758;BME280;59316;52.964;7.102;2023-05-11T03:08:00;101449.69;;;13.22;nan
70758;BME280;59316;52.964;7.102;2023-05-11T03:13:23;101451.69;;;13.33;nan
70758;BME280;59316;52.964;7.102;2023-05-11T03:18:48;101452.88;;;13.27;nan
70758;BME280;59316;52.964;7.102;2023-05-11T03:24:11;101450.16;;;13.14;nan
70758;BME280;59316;52.964;7.102;2023-05-11T03:29:33;101451.84;;;13.30;nan
70758;BME280;59316;52.964;7.102;2023-05-11T03:34:57;101456.19;;;13.31;nan
70758;BME280;59316;52.964;7.102;2023-05-11T03:40:19;101457.41;;;13.25;nan
70758;BME280;59316;52.964;7.102;2023-05-11T03:45:49;101451.69;;;13.33;nan
70758;BME280;59316;52.964;7.102;2023-05-11T03:51:13;101455.03;;;13.35;nan
70758;BME280;59316;52.964;7.102;2023-05-11T03:56:35;101454.31;;;13.33;nan
70758;BME280;59316;52.964;7.102;2023-05-11T04:01:57;101446.44;;;13.33;nan
70758;BME280;59316;52.964;7.102;2023-05-11T04:07:19;101459.63;;;13.31;nan
70758;BME280;59316;52.964;7.102;2023-05-11T04:12:41;101458.31;;;13.39;nan
70758;BME280;59316;52.964;7.102;2023-05-11T04:18:02;101458.88;;;13.44;nan
70758;BME280;59316;52.964;7.102;2023-05-11T04:23:24;101448.28;;;13.45;nan
70758;BME280;59316;52.964;7.102;2023-05-11T04:28:46;101455.06;;;13.50;nan
70758;BME280;59316;52.964;7.102;2023-05-11T04:34:07;101454.84;;;13.53;nan
70758;BME280;59316;52.964;7.102;2023-05-11T04:39:30;101457.34;;;13.69;nan
70758;BME280;59316;52.964;7.102;2023-05-11T04:44:53;101460.72;;;13.71;nan
70758;BME280;59316;52.964;7.102;2023-05-11T04:50:14;101459.66;;;13.88;nan
70758;BME280;59316;52.964;7.102;2023-05-11T04:55:37;101457.22;;;13.85;nan
70758;BME280;59316;52.964;7.102;2023-05-11T05:00:59;101452.72;;;13.87;nan
70758;BME280;59316;52.964;7.102;2023-05-11T05:06:20;101471.56;;;13.93;nan
70758;BME280;59316;52.964;7.102;2023-05-11T05:11:42;101466.44;;;13.92;nan
70758;BME280;59316;52.964;7.102;2023-05-11T05:17:05;101468.19;;;13.91;nan
70758;BME280;59316;52.964;7.102;2023-05-11T05:22:26;101469.03;;;14.06;nan
70758;BME280;59316;52.964;7.102;2023-05-11T05:27:48;101475.88;;;14.09;nan
70758;BME280;59316;52.964;7.102;2023-05-11T05:33:12;101480.69;;;14.02;nan
70758;BME280;59316;52.964;7.102;2023-05-11T05:38:33;101490.91;;;14.07;nan
70758;BME280;59316;52.964;7.102;2023-05-11T05:43:55;101490.72;;;14.10;nan
70758;BME280;59316;52.964;7.102;2023-05-11T05:49:16;101494.28;;;14.09;nan
70758;BME280;59316;52.964;7.102;2023-05-11T05:54:38;101503.28;;;14.19;nan
70758;BME280;59316;52.964;7.102;2023-05-11T06:00:00;101506.22;;;14.42;nan
70758;BME280;59316;52.964;7.102;2023-05-11T06:05:32;101519.41;;;14.55;nan
70758;BME280;59316;52.964;7.102;2023-05-11T06:10:54;101533.94;;;14.60;nan
70758;BME280;59316;52.964;7.102;2023-05-11T06:16:16;101536.59;;;14.73;nan
70758;BME280;59316;52.964;7.102;2023-05-11T06:21:37;101538.94;;;14.78;nan
70758;BME280;59316;52.964;7.102;2023-05-11T06:26:59;101532.00;;;15.03;nan
70758;BME280;59316;52.964;7.102;2023-05-11T06:32:22;101538.34;;;15.26;nan
70758;BME280;59316;52.964;7.102;2023-05-11T06:37:43;101528.78;;;15.64;nan
70758;BME280;59316;52.964;7.102;2023-05-11T06:43:05;101525.72;;;16.07;nan
70758;BME280;59316;52.964;7.102;2023-05-11T06:48:46;101537.22;;;16.06;nan
70758;BME280;59316;52.964;7.102;2023-05-11T06:54:07;101549.78;;;16.02;nan
70758;BME280;59316;52.964;7.102;2023-05-11T06:59:29;101539.56;;;16.11;nan
70758;BME280;59316;52.964;7.102;2023-05-11T07:04:50;101551.97;;;16.21;nan
70758;BME280;59316;52.964;7.102;2023-05-11T07:10:12;101551.97;;;16.21;nan
70758;BME280;59316;52.964;7.102;2023-05-11T07:15:33;101556.00;;;16.01;nan
70758;BME280;59316;52.964;7.102;2023-05-11T07:20:55;101558.22;;;16.07;nan
70758;BME280;59316;52.964;7.102;2023-05-11T07:26:17;101551.91;;;16.34;nan
70758;BME280;59316;52.964;7.102;2023-05-11T07:31:38;101554.88;;;16.54;nan
70758;BME280;59316;52.964;7.102;2023-05-11T07:37:00;101562.38;;;16.96;nan
70758;BME280;59316;52.964;7.102;2023-05-11T07:42:21;101557.28;;;17.17;nan
70758;BME280;59316;52.964;7.102;2023-05-11T07:47:43;101562.50;;;17.41;nan
70758;BME280;59316;52.964;7.102;2023-05-11T07:53:04;101559.59;;;17.44;nan
70758;BME280;59316;52.964;7.102;2023-05-11T07:58:26;101559.19;;;17.15;nan
70758;BME280;59316;52.964;7.102;2023-05-11T08:03:48;101561.50;;;17.19;nan
70758;BME280;59316;52.964;7.102;2023-05-11T08:09:09;101552.50;;;17.33;nan
70758;BME280;59316;52.964;7.102;2023-05-11T08:14:31;101565.47;;;17.36;nan
70758;BME280;59316;52.964;7.102;2023-05-11T08:19:53;101575.22;;;17.59;nan
70758;BME280;59316;52.964;7.102;2023-05-11T08:25:14;101570.19;;;17.55;nan
70758;BME280;59316;52.964;7.102;2023-05-11T08:30:36;101574.75;;;17.53;nan
70758;BME280;59316;52.964;7.102;2023-05-11T08:35:58;101581.66;;;17.20;nan
70758;BME280;59316;52.964;7.102;2023-05-11T08:41:19;101574.50;;;17.45;nan
70758;BME280;59316;52.964;7.102;2023-05-11T08:46:44;101574.63;;;17.44;nan
70758;BME280;59316;52.964;7.102;2023-05-11T08:52:05;101576.09;;;17.70;nan
70758;BME280;59316;52.964;7.102;2023-05-11T08:57:30;101571.88;;;18.02;nan
70758;BME280;59316;52.964;7.102;2023-05-11T09:02:51;101585.34;;;17.76;nan
70758;BME280;59316;52.964;7.102;2023-05-11T09:08:14;101569.31;;;18.23;nan
70758;BME280;59316;52.964;7.102;2023-05-11T09:13:38;101576.16;;;18.69;nan
70758;BME280;59316;52.964;7.102;2023-05-11T09:19:00;101576.88;;;18.28;nan
70758;BME280;59316;52.964;7.102;2023-05-11T09:24:22;101580.25;;;18.62;nan
70758;BME280;59316;52.964;7.102;2023-05-11T09:29:43;101579.84;;;19.32;nan
70758;BME280;59316;52.964;7.102;2023-05-11T09:35:19;101573.81;;;19.61;nan
70758;BME280;59316;52.964;7.102;2023-05-11T09:40:55;101577.13;;;19.53;nan
70758;BME280;59316;52.964;7.102;2023-05-11T09:46:20;101578.47;;;19.68;nan
70758;BME280;59316;52.964;7.102;2023-05-11T09:51:41;101585.31;;;19.40;nan
70758;BME280;59316;52.964;7.102;2023-05-11T09:57:03;101580.28;;;19.68;nan
70758;BME280;59316;52.964;7.102;2023-05-11T10:02:25;101571.53;;;20.18;nan
70758;BME280;59316;52.964;7.102;2023-05-11T10:07:55;101564.88;;;20.82;nan
70758;BME280;59316;52.964;7.102;2023-05-11T10:13:19;101563.75;;;20.85;nan
70758;BME280;59316;52.964;7.102;2023-05-11T10:18:41;101563.75;;;20.85;nan
70758;BME280;59316;52.964;7.102;2023-05-11T10:24:04;101562.47;;;21.09;nan
70758;BME280;59316;52.964;7.102;2023-05-11T10:29:27;101561.22;;;20.93;nan
70758;BME280;59316;52.964;7.102;2023-05-11T10:34:49;101566.03;;;21.37;nan
70758;BME280;59316;52.964;7.102;2023-05-11T10:40:11;101564.78;;;21.41;nan
70758;BME280;59316;52.964;7.102;2023-05-11T10:51:40;101572.59;;;21.80;nan
70758;BME280;59316;52.964;7.102;2023-05-11T10:57:53;101564.78;;;22.07;nan
70758;BME280;59316;52.964;7.102;2023-05-11T11:03:35;101558.84;;;22.13;nan
70758;BME280;59316;52.964;7.102;2023-05-11T11:08:59;101559.56;;;21.49;nan
70758;BME280;59316;52.964;7.102;2023-05-11T11:14:23;101556.47;;;21.07;nan
70758;BME280;59316;52.964;7.102;2023-05-11T11:19:44;101557.16;;;20.50;nan
70758;BME280;59316;52.964;7.102;2023-05-11T11:25:07;101564.97;;;20.32;nan
70758;BME280;59316;52.964;7.102;2023-05-11T11:30:30;101575.28;;;19.44;nan
70758;BME280;59316;52.964;7.102;2023-05-11T11:35:51;101567.22;;;19.86;nan
70758;BME280;59316;52.964;7.102;2023-05-11T11:41:27;101563.16;;;20.23;nan
70758;BME280;59316;52.964;7.102;2023-05-11T11:47:18;101563.88;;;20.44;nan
70758;BME280;59316;52.964;7.102;2023-05-11T11:52:39;101564.00;;;20.82;nan
70758;BME280;59316;52.964;7.102;2023-05-11T11:58:01;101555.47;;;20.88;nan
70758;BME280;59316;52.964;7.102;2023-05-11T12:03:23;101560.22;;;20.84;nan
70758;BME280;59316;52.964;7.102;2023-05-11T12:08:45;101542.22;;;20.69;nan
70758;BME280;59316;52.964;7.102;2023-05-11T12:14:08;101544.56;;;21.11;nan
70758;BME280;59316;52.964;7.102;2023-05-11T12:19:29;101541.63;;;21.52;nan
70758;BME280;59316;52.964;7.102;2023-05-11T12:24:54;101543.56;;;21.59;nan
70758;BME280;59316;52.964;7.102;2023-05-11T12:30:27;101541.09;;;21.38;nan
70758;BME280;59316;52.964;7.102;2023-05-11T12:35:54;101539.31;;;21.67;nan
70758;BME280;59316;52.964;7.102;2023-05-11T12:41:21;101540.25;;;21.75;nan
70758;BME280;59316;52.964;7.102;2023-05-11T12:46:45;101542.47;;;21.90;nan
70758;BME280;59316;52.964;7.102;2023-05-11T12:52:07;101552.53;;;21.58;nan
70758;BME280;59316;52.964;7.102;2023-05-11T12:57:30;101552.41;;;21.88;nan
70758;BME280;59316;52.964;7.102;2023-05-11T13:02:53;101551.03;;;21.84;nan
70758;BME280;59316;52.964;7.102;2023-05-11T13:08:18;101547.31;;;21.19;nan
70758;BME280;59316;52.964;7.102;2023-05-11T13:13:39;101546.50;;;21.09;nan
70758;BME280;59316;52.964;7.102;2023-05-11T13:19:05;101545.28;;;20.64;nan
70758;BME280;59316;52.964;7.102;2023-05-11T13:24:27;101546.00;;;20.66;nan
70758;BME280;59316;52.964;7.102;2023-05-11T13:29:48;101549.47;;;20.37;nan
70758;BME280;59316;52.964;7.102;2023-05-11T13:35:10;101546.69;;;20.58;nan
70758;BME280;59316;52.964;7.102;2023-05-11T13:40:32;101547.94;;;20.44;nan
70758;BME280;59316;52.964;7.102;2023-05-11T13:45:54;101538.00;;;20.27;nan
70758;BME280;59316;52.964;7.102;2023-05-11T13:51:16;101541.34;;;20.19;nan
70758;BME280;59316;52.964;7.102;2023-05-11T13:56:38;101545.31;;;19.84;nan
70758;BME280;59316;52.964;7.102;2023-05-11T14:01:59;101549.22;;;19.90;nan
70758;BME280;59316;52.964;7.102;2023-05-11T14:07:21;101557.09;;;20.01;nan
70758;BME280;59316;52.964;7.102;2023-05-11T14:12:49;101547.47;;;20.10;nan
70758;BME280;59316;52.964;7.102;2023-05-11T14:18:11;101551.94;;;19.99;nan
70758;BME280;59316;52.964;7.102;2023-05-11T14:23:33;101552.25;;;20.16;nan
70758;BME280;59316;52.964;7.102;2023-05-11T14:28:55;101547.53;;;19.79;nan
70758;BME280;59316;52.964;7.102;2023-05-11T14:34:17;101549.56;;;19.65;nan
70758;BME280;59316;52.964;7.102;2023-05-11T14:39:39;101554.78;;;19.46;nan
70758;BME280;59316;52.964;7.102;2023-05-11T14:45:01;101557.22;;;19.07;nan
70758;BME280;59316;52.964;7.102;2023-05-11T14:50:23;101560.59;;;19.09;nan
70758;BME280;59316;52.964;7.102;2023-05-11T14:55:44;101559.13;;;18.83;nan
70758;BME280;59316;52.964;7.102;2023-05-11T15:01:06;101551.06;;;18.52;nan
70758;BME280;59316;52.964;7.102;2023-05-11T15:06:27;101553.16;;;18.37;nan
70758;BME280;59316;52.964;7.102;2023-05-11T15:11:49;101553.50;;;18.33;nan
70758;BME280;59316;52.964;7.102;2023-05-11T15:17:10;101553.25;;;18.47;nan
70758;BME280;59316;52.964;7.102;2023-05-11T15:22:32;101560.38;;;18.35;nan
70758;BME280;59316;52.964;7.102;2023-05-11T15:27:54;101557.59;;;18.48;nan
70758;BME280;59316;52.964;7.102;2023-05-11T15:33:16;101561.16;;;18.91;nan
70758;BME280;59316;52.964;7.102;2023-05-11T15:38:38;101564.28;;;18.85;nan
70758;BME280;59316;52.964;7.102;2023-05-11T15:43:59;101560.25;;;18.48;nan
70758;BME280;59316;52.964;7.102;2023-05-11T15:49:21;101561.81;;;17.84;nan
70758;BME280;59316;52.964;7.102;2023-05-11T15:54:42;101570.94;;;17.58;nan
70758;BME280;59316;52.964;7.102;2023-05-11T16:00:04;101571.88;;;17.56;nan
70758;BME280;59316;52.964;7.102;2023-05-11T16:05:27;101565.38;;;17.61;nan
70758;BME280;59316;52.964;7.102;2023-05-11T16:10:49;101567.66;;;17.77;nan
70758;BME280;59316;52.964;7.102;2023-05-11T16:16:11;101565.75;;;17.79;nan
70758;BME280;59316;52.964;7.102;2023-05-11T16:21:33;101566.03;;;17.87;nan
70758;BME280;59316;52.964;7.102;2023-05-11T16:26:55;101571.97;;;17.78;nan
70758;BME280;59316;52.964;7.102;2023-05-11T16:32:16;101576.19;;;17.46;nan
70758;BME280;59316;52.964;7.102;2023-05-11T16:37:38;101582.09;;;17.38;nan
70758;BME280;59316;52.964;7.102;2023-05-11T16:42:59;101584.97;;;17.47;nan
70758;BME280;59316;52.964;7.102;2023-05-11T16:48:21;101578.44;;;17.39;nan
70758;BME280;59316;52.964;7.102;2023-05-11T16:53:42;101573.50;;;17.12;nan
70758;BME280;59316;52.964;7.102;2023-05-11T16:59:04;101581.22;;;16.91;nan
70758;BME280;59316;52.964;7.102;2023-05-11T17:04:26;101578.63;;;17.02;nan
70758;BME280;59316;52.964;7.102;2023-05-11T17:09:47;101588.47;;;17.00;nan
70758;BME280;59316;52.964;7.102;2023-05-11T17:15:09;101588.19;;;16.92;nan
70758;BME280;59316;52.964;7.102;2023-05-11T17:20:30;101596.03;;;16.56;nan
70758;BME280;59316;52.964;7.102;2023-05-11T17:25:52;101605.81;;;16.43;nan
70758;BME280;59316;52.964;7.102;2023-05-11T17:31:14;101608.19;;;16.22;nan
70758;BME280;59316;52.964;7.102;2023-05-11T17:36:35;101616.81;;;16.00;nan
70758;BME280;59316;52.964;7.102;2023-05-11T17:41:57;101618.19;;;15.80;nan
70758;BME280;59316;52.964;7.102;2023-05-11T17:47:18;101625.69;;;15.60;nan
70758;BME280;59316;52.964;7.102;2023-05-11T17:52:40;101633.81;;;15.44;nan
70758;BME280;59316;52.964;7.102;2023-05-11T17:58:01;101643.84;;;15.11;nan
70758;BME280;59316;52.964;7.102;2023-05-11T18:03:23;101638.25;;;15.03;nan
70758;BME280;59316;52.964;7.102;2023-05-11T18:08:44;101646.19;;;14.89;nan
70758;BME280;59316;52.964;7.102;2023-05-11T18:14:07;101648.13;;;14.72;nan
70758;BME280;59316;52.964;7.102;2023-05-11T18:19:28;101643.75;;;14.58;nan
70758;BME280;59316;52.964;7.102;2023-05-11T18:24:50;101642.28;;;14.40;nan
70758;BME280;59316;52.964;7.102;2023-05-11T18:30:12;101647.09;;;14.33;nan
70758;BME280;59316;52.964;7.102;2023-05-11T18:35:34;101651.81;;;14.13;nan
70758;BME280;59316;52.964;7.102;2023-05-11T18:40:55;101651.34;;;14.07;nan
70758;BME280;59316;52.964;7.102;2023-05-11T18:46:17;101664.03;;;14.00;nan
70758;BME280;59316;52.964;7.102;2023-05-11T18:51:38;101660.63;;;13.98;nan
70758;BME280;59316;52.964;7.102;2023-05-11T18:57:00;101665.38;;;13.91;nan
70758;BME280;59316;52.964;7.102;2023-05-11T19:02:22;101677.13;;;13.86;nan
70758;BME280;59316;52.964;7.102;2023-05-11T19:07:43;101678.91;;;13.85;nan
70758;BME280;59316;52.964;7.102;2023-05-11T19:13:05;101678.19;;;13.98;nan
70758;BME280;59316;52.964;7.102;2023-05-11T19:18:27;101683.78;;;13.91;nan
70758;BME280;59316;52.964;7.102;2023-05-11T19:23:48;101691.88;;;13.88;nan
70758;BME280;59316;52.964;7.102;2023-05-11T19:29:10;101699.09;;;13.85;nan
70758;BME280;59316;52.964;7.102;2023-05-11T19:34:32;101706.41;;;13.79;nan
70758;BME280;59316;52.964;7.102;2023-05-11T19:39:53;101706.53;;;13.78;nan
70758;BME280;59316;52.964;7.102;2023-05-11T19:45:25;101708.84;;;13.68;nan
70758;BME280;59316;52.964;7.102;2023-05-11T19:50:47;101709.97;;;13.78;nan
70758;BME280;59316;52.964;7.102;2023-05-11T19:56:09;101702.00;;;13.80;nan
70758;BME280;59316;52.964;7.102;2023-05-11T20:01:30;101713.91;;;13.71;nan
70758;BME280;59316;52.964;7.102;2023-05-11T20:06:52;101715.59;;;13.72;nan
70758;BME280;59316;52.964;7.102;2023-05-11T20:12:14;101703.31;;;13.73;nan
70758;BME280;59316;52.964;7.102;2023-05-11T20:17:35;101706.41;;;13.79;nan
70758;BME280;59316;52.964;7.102;2023-05-11T20:22:58;101700.59;;;13.74;nan
70758;BME280;59316;52.964;7.102;2023-05-11T20:28:19;101694.41;;;13.75;nan
70758;BME280;59316;52.964;7.102;2023-05-11T20:33:41;101692.72;;;13.74;nan
70758;BME280;59316;52.964;7.102;2023-05-11T20:39:05;101693.75;;;13.86;nan
70758;BME280;59316;52.964;7.102;2023-05-11T20:44:27;101682.31;;;13.87;nan
70758;BME280;59316;52.964;7.102;2023-05-11T20:49:48;101671.69;;;13.74;nan
70758;BME280;59316;52.964;7.102;2023-05-11T20:55:10;101674.00;;;13.79;nan
70758;BME280;59316;52.964;7.102;2023-05-11T21:00:31;101674.69;;;13.83;nan
70758;BME280;59316;52.964;7.102;2023-05-11T21:05:53;101675.22;;;13.73;nan
70758;BME280;59316;52.964;7.102;2023-05-11T21:11:15;101678.63;;;13.75;nan
70758;BME280;59316;52.964;7.102;2023-05-11T21:16:37;101691.41;;;13.82;nan
70758;BME280;59316;52.964;7.102;2023-05-11T21:21:58;101697.88;;;13.76;nan
70758;BME280;59316;52.964;7.102;2023-05-11T21:27:20;101709.97;;;13.78;nan
70758;BME280;59316;52.964;7.102;2023-05-11T21:32:41;101720.41;;;13.80;nan
70758;BME280;59316;52.964;7.102;2023-05-11T21:38:03;101665.91;;;13.53;nan
70758;BME280;59316;52.964;7.102;2023-05-11T21:43:25;101684.88;;;13.58;nan
70758;BME280;59316;52.964;7.102;2023-05-11T21:48:46;101680.63;;;13.56;nan
70758;BME280;59316;52.964;7.102;2023-05-11T21:54:08;101685.41;;;13.49;nan
70758;BME280;59316;52.964;7.102;2023-05-11T21:59:29;101675.84;;;13.48;nan
70758;BME280;59316;52.964;7.102;2023-05-11T22:04:51;101682.13;;;13.45;nan
70758;BME280;59316;52.964;7.102;2023-05-11T22:10:12;101685.50;;;13.47;nan
70758;BME280;59316;52.964;7.102;2023-05-11T22:15:34;101688.31;;;13.44;nan
70758;BME280;59316;52.964;7.102;2023-05-11T22:20:55;101687.03;;;13.52;nan
70758;BME280;59316;52.964;7.102;2023-05-11T22:26:17;101681.28;;;13.45;nan
70758;BME280;59316;52.964;7.102;2023-05-11T22:31:38;101674.22;;;13.45;nan
70758;BME280;59316;52.964;7.102;2023-05-11T22:37:00;101671.44;;;13.48;nan
70758;BME280;59316;52.964;7.102;2023-05-11T22:42:22;101682.31;;;13.42;nan
70758;BME280;59316;52.964;7.102;2023-05-11T22:47:43;101677.88;;;13.43;nan
70758;BME280;59316;52.964;7.102;2023-05-11T22:53:05;101678.75;;;13.43;nan
70758;BME280;59316;52.964;7.102;2023-05-11T22:58:26;101674.88;;;13.35;nan
70758;BME280;59316;52.964;7.102;2023-05-11T23:03:48;101682.31;;;13.42;nan
70758;BME280;59316;52.964;7.102;2023-05-11T23:09:09;101675.91;;;13.32;nan
70758;BME280;59316;52.964;7.102;2023-05-11T23:14:31;101679.94;;;13.38;nan
70758;BME280;59316;52.964;7.102;2023-05-11T23:19:52;101681.84;;;13.36;nan
70758;BME280;59316;52.964;7.102;2023-05-11T23:25:14;101685.09;;;13.39;nan
70758;BME280;59316;52.964;7.102;2023-05-11T23:30:35;101680.03;;;13.36;nan
70758;BME280;59316;52.964;7.102;2023-05-11T23:35:57;101680.00;;;13.52;nan
70758;BME280;59316;52.964;7.102;2023-05-11T23:41:19;101670.28;;;13.38;nan
70758;BME280;59316;52.964;7.102;2023-05-11T23:46:40;101684.22;;;13.55;nan
70758;BME280;59316;52.964;7.102;2023-05-11T23:52:02;101676.59;;;13.50;nan
70758;BME280;59316;52.964;7.102;2023-05-11T23:57:23;101670.69;;;13.61;nan
